sensor_id;sensor_type;location;lat;lon;timestamp;P1;durP1;ratioP1;P2;durP2;ratioP2
33268;SDS011;19640;50.944;5.260;2023-08-30T00:00:40;8.18;;;6.80;;
33268;SDS011;19640;50.944;5.260;2023-08-30T00:03:06;9.20;;;7.63;;
33268;SDS011;19640;50.944;5.260;2023-08-30T00:05:32;8.38;;;7.25;;
33268;SDS011;19640;50.944;5.260;2023-08-30T00:07:58;11.82;;;6.85;;
33268;SDS011;19640;50.944;5.260;2023-08-30T00:10:23;7.22;;;6.45;;
33268;SDS011;19640;50.944;5.260;2023-08-30T00:12:49;13.68;;;7.90;;
33268;SDS011;19640;50.944;5.260;2023-08-30T00:15:15;10.38;;;7.90;;
33268;SDS011;19640;50.944;5.260;2023-08-30T00:17:41;8.52;;;7.13;;
33268;SDS011;19640;50.944;5.260;2023-08-30T00:20:07;12.90;;;7.78;;
33268;SDS011;19640;50.944;5.260;2023-08-30T00:22:34;11.52;;;9.30;;
33268;SDS011;19640;50.944;5.260;2023-08-30T00:25:00;12.93;;;11.43;;
33268;SDS011;19640;50.944;5.260;2023-08-30T00:27:26;20.50;;;12.38;;
33268;SDS011;19640;50.944;5.260;2023-08-30T00:29:52;13.85;;;12.55;;
33268;SDS011;19640;50.944;5.260;2023-08-30T00:32:18;15.27;;;12.68;;
33268;SDS011;19640;50.944;5.260;2023-08-30T00:34:43;15.25;;;13.57;;
33268;SDS011;19640;50.944;5.260;2023-08-30T00:37:09;17.05;;;14.48;;
33268;SDS011;19640;50.944;5.260;2023-08-30T00:39:38;15.82;;;13.15;;
33268;SDS011;19640;50.944;5.260;2023-08-30T00:42:04;13.30;;;11.93;;
33268;SDS011;19640;50.944;5.260;2023-08-30T00:44:32;13.90;;;12.50;;
33268;SDS011;19640;50.944;5.260;2023-08-30T00:46:59;17.60;;;13.63;;
33268;SDS011;19640;50.944;5.260;2023-08-30T00:49:26;18.85;;;13.55;;
33268;SDS011;19640;50.944;5.260;2023-08-30T00:51:52;20.42;;;13.52;;
33268;SDS011;19640;50.944;5.260;2023-08-30T00:54:19;16.10;;;12.30;;
33268;SDS011;19640;50.944;5.260;2023-08-30T00:56:46;14.15;;;12.18;;
33268;SDS011;19640;50.944;5.260;2023-08-30T00:59:12;13.40;;;12.05;;
33268;SDS011;19640;50.944;5.260;2023-08-30T01:01:38;13.60;;;12.25;;
33268;SDS011;19640;50.944;5.260;2023-08-30T01:04:06;14.02;;;12.30;;
33268;SDS011;19640;50.944;5.260;2023-08-30T01:06:32;14.63;;;11.93;;
33268;SDS011;19640;50.944;5.260;2023-08-30T01:09:00;19.33;;;12.50;;
33268;SDS011;19640;50.944;5.260;2023-08-30T01:14:21;13.63;;;10.75;;
33268;SDS011;19640;50.944;5.260;2023-08-30T01:16:54;16.08;;;11.70;;
33268;SDS011;19640;50.944;5.260;2023-08-30T01:22:12;13.73;;;12.43;;
33268;SDS011;19640;50.944;5.260;2023-08-30T01:27:34;13.98;;;12.60;;
33268;SDS011;19640;50.944;5.260;2023-08-30T01:30:02;13.93;;;12.43;;
33268;SDS011;19640;50.944;5.260;2023-08-30T01:32:31;21.13;;;12.70;;
33268;SDS011;19640;50.944;5.260;2023-08-30T01:34:59;13.20;;;11.90;;
33268;SDS011;19640;50.944;5.260;2023-08-30T01:37:26;19.33;;;12.38;;
33268;SDS011;19640;50.944;5.260;2023-08-30T01:39:53;13.60;;;11.40;;
33268;SDS011;19640;50.944;5.260;2023-08-30T01:42:22;13.38;;;12.10;;
33268;SDS011;19640;50.944;5.260;2023-08-30T01:44:49;15.15;;;12.07;;
33268;SDS011;19640;50.944;5.260;2023-08-30T01:47:16;15.13;;;12.38;;
33268;SDS011;19640;50.944;5.260;2023-08-30T01:49:44;18.13;;;11.55;;
33268;SDS011;19640;50.944;5.260;2023-08-30T01:52:10;13.68;;;11.20;;
33268;SDS011;19640;50.944;5.260;2023-08-30T01:54:36;14.23;;;12.85;;
33268;SDS011;19640;50.944;5.260;2023-08-30T01:57:04;14.68;;;12.57;;
33268;SDS011;19640;50.944;5.260;2023-08-30T01:59:30;12.73;;;11.43;;
33268;SDS011;19640;50.944;5.260;2023-08-30T02:01:55;14.57;;;11.23;;
33268;SDS011;19640;50.944;5.260;2023-08-30T02:04:21;14.60;;;10.93;;
33268;SDS011;19640;50.944;5.260;2023-08-30T02:12:53;13.40;;;12.02;;
33268;SDS011;19640;50.944;5.260;2023-08-30T02:15:20;16.90;;;12.98;;
33268;SDS011;19640;50.944;5.260;2023-08-30T02:17:46;20.13;;;11.85;;
33268;SDS011;19640;50.944;5.260;2023-08-30T02:20:13;20.15;;;12.00;;
33268;SDS011;19640;50.944;5.260;2023-08-30T02:22:39;14.65;;;11.55;;
33268;SDS011;19640;50.944;5.260;2023-08-30T02:25:05;13.60;;;11.32;;
33268;SDS011;19640;50.944;5.260;2023-08-30T02:27:34;15.93;;;12.32;;
33268;SDS011;19640;50.944;5.260;2023-08-30T02:30:00;14.07;;;11.65;;
33268;SDS011;19640;50.944;5.260;2023-08-30T02:32:26;14.23;;;12.15;;
33268;SDS011;19640;50.944;5.260;2023-08-30T02:34:51;12.95;;;11.13;;
33268;SDS011;19640;50.944;5.260;2023-08-30T02:37:18;11.73;;;10.63;;
33268;SDS011;19640;50.944;5.260;2023-08-30T02:39:44;16.13;;;11.07;;
33268;SDS011;19640;50.944;5.260;2023-08-30T02:42:10;15.27;;;11.25;;
33268;SDS011;19640;50.944;5.260;2023-08-30T02:44:36;12.73;;;11.38;;
33268;SDS011;19640;50.944;5.260;2023-08-30T02:47:01;13.82;;;11.10;;
33268;SDS011;19640;50.944;5.260;2023-08-30T02:49:27;13.10;;;11.48;;
33268;SDS011;19640;50.944;5.260;2023-08-30T02:51:53;15.10;;;10.88;;
33268;SDS011;19640;50.944;5.260;2023-08-30T02:54:19;14.43;;;12.07;;
33268;SDS011;19640;50.944;5.260;2023-08-30T02:56:45;10.52;;;9.63;;
33268;SDS011;19640;50.944;5.260;2023-08-30T02:59:11;13.13;;;11.15;;
33268;SDS011;19640;50.944;5.260;2023-08-30T03:01:37;12.13;;;10.73;;
33268;SDS011;19640;50.944;5.260;2023-08-30T03:04:06;11.48;;;10.38;;
33268;SDS011;19640;50.944;5.260;2023-08-30T03:06:33;12.18;;;10.98;;
33268;SDS011;19640;50.944;5.260;2023-08-30T03:08:59;11.73;;;10.63;;
33268;SDS011;19640;50.944;5.260;2023-08-30T03:11:25;17.15;;;11.15;;
33268;SDS011;19640;50.944;5.260;2023-08-30T03:13:52;14.88;;;11.50;;
33268;SDS011;19640;50.944;5.260;2023-08-30T03:16:18;12.77;;;11.15;;
33268;SDS011;19640;50.944;5.260;2023-08-30T03:18:44;14.25;;;11.63;;
33268;SDS011;19640;50.944;5.260;2023-08-30T03:21:11;13.07;;;11.35;;
33268;SDS011;19640;50.944;5.260;2023-08-30T03:23:37;12.20;;;11.10;;
33268;SDS011;19640;50.944;5.260;2023-08-30T03:28:39;13.30;;;10.68;;
33268;SDS011;19640;50.944;5.260;2023-08-30T03:31:13;14.27;;;10.68;;
33268;SDS011;19640;50.944;5.260;2023-08-30T03:33:46;12.55;;;11.27;;
33268;SDS011;19640;50.944;5.260;2023-08-30T03:36:14;12.27;;;10.23;;
33268;SDS011;19640;50.944;5.260;2023-08-30T03:38:41;11.18;;;10.15;;
33268;SDS011;19640;50.944;5.260;2023-08-30T03:41:08;17.30;;;10.65;;
33268;SDS011;19640;50.944;5.260;2023-08-30T03:43:35;14.05;;;10.68;;
33268;SDS011;19640;50.944;5.260;2023-08-30T03:46:00;12.18;;;10.40;;
33268;SDS011;19640;50.944;5.260;2023-08-30T03:48:28;14.15;;;11.45;;
33268;SDS011;19640;50.944;5.260;2023-08-30T03:50:54;13.27;;;10.55;;
33268;SDS011;19640;50.944;5.260;2023-08-30T03:53:20;13.07;;;10.52;;
33268;SDS011;19640;50.944;5.260;2023-08-30T03:55:46;13.10;;;10.95;;
33268;SDS011;19640;50.944;5.260;2023-08-30T03:58:11;13.15;;;10.38;;
33268;SDS011;19640;50.944;5.260;2023-08-30T04:00:37;12.55;;;10.85;;
33268;SDS011;19640;50.944;5.260;2023-08-30T04:03:04;14.35;;;11.40;;
33268;SDS011;19640;50.944;5.260;2023-08-30T04:05:37;14.32;;;11.00;;
33268;SDS011;19640;50.944;5.260;2023-08-30T04:08:03;14.65;;;12.27;;
33268;SDS011;19640;50.944;5.260;2023-08-30T04:10:33;16.10;;;12.68;;
33268;SDS011;19640;50.944;5.260;2023-08-30T04:13:03;20.95;;;13.73;;
33268;SDS011;19640;50.944;5.260;2023-08-30T04:15:32;19.40;;;14.48;;
33268;SDS011;19640;50.944;5.260;2023-08-30T04:20:27;14.48;;;12.35;;
33268;SDS011;19640;50.944;5.260;2023-08-30T04:22:53;20.30;;;13.52;;
33268;SDS011;19640;50.944;5.260;2023-08-30T04:25:21;15.35;;;13.93;;
33268;SDS011;19640;50.944;5.260;2023-08-30T04:27:46;19.00;;;15.93;;
33268;SDS011;19640;50.944;5.260;2023-08-30T04:30:12;20.48;;;15.50;;
33268;SDS011;19640;50.944;5.260;2023-08-30T04:32:38;19.45;;;15.98;;
33268;SDS011;19640;50.944;5.260;2023-08-30T04:35:04;19.13;;;16.65;;
33268;SDS011;19640;50.944;5.260;2023-08-30T04:37:30;19.52;;;17.48;;
33268;SDS011;19640;50.944;5.260;2023-08-30T04:39:58;21.73;;;17.92;;
33268;SDS011;19640;50.944;5.260;2023-08-30T04:42:24;21.70;;;17.15;;
33268;SDS011;19640;50.944;5.260;2023-08-30T04:44:51;33.33;;;17.98;;
33268;SDS011;19640;50.944;5.260;2023-08-30T04:47:19;21.23;;;17.48;;
33268;SDS011;19640;50.944;5.260;2023-08-30T04:49:50;21.45;;;18.17;;
33268;SDS011;19640;50.944;5.260;2023-08-30T04:52:16;25.45;;;18.23;;
33268;SDS011;19640;50.944;5.260;2023-08-30T04:54:42;20.77;;;18.15;;
33268;SDS011;19640;50.944;5.260;2023-08-30T04:57:10;19.85;;;17.73;;
33268;SDS011;19640;50.944;5.260;2023-08-30T04:59:39;24.02;;;18.33;;
33268;SDS011;19640;50.944;5.260;2023-08-30T05:02:06;20.98;;;18.75;;
33268;SDS011;19640;50.944;5.260;2023-08-30T05:04:31;21.83;;;18.05;;
33268;SDS011;19640;50.944;5.260;2023-08-30T05:06:57;21.13;;;17.65;;
33268;SDS011;19640;50.944;5.260;2023-08-30T05:09:23;20.50;;;18.35;;
33268;SDS011;19640;50.944;5.260;2023-08-30T05:11:50;18.95;;;17.02;;
33268;SDS011;19640;50.944;5.260;2023-08-30T05:14:16;19.13;;;16.25;;
33268;SDS011;19640;50.944;5.260;2023-08-30T05:16:42;18.70;;;15.82;;
33268;SDS011;19640;50.944;5.260;2023-08-30T05:19:08;16.55;;;14.88;;
33268;SDS011;19640;50.944;5.260;2023-08-30T05:21:33;16.42;;;14.88;;
33268;SDS011;19640;50.944;5.260;2023-08-30T05:23:59;19.55;;;14.73;;
33268;SDS011;19640;50.944;5.260;2023-08-30T05:26:25;15.10;;;13.63;;
33268;SDS011;19640;50.944;5.260;2023-08-30T05:28:51;14.85;;;13.32;;
33268;SDS011;19640;50.944;5.260;2023-08-30T05:31:17;15.20;;;13.60;;
33268;SDS011;19640;50.944;5.260;2023-08-30T05:33:42;15.50;;;12.55;;
33268;SDS011;19640;50.944;5.260;2023-08-30T05:36:08;14.43;;;13.02;;
33268;SDS011;19640;50.944;5.260;2023-08-30T05:38:34;14.27;;;12.07;;
33268;SDS011;19640;50.944;5.260;2023-08-30T05:40:59;13.18;;;11.77;;
33268;SDS011;19640;50.944;5.260;2023-08-30T05:43:25;13.15;;;11.82;;
33268;SDS011;19640;50.944;5.260;2023-08-30T05:45:51;12.38;;;10.98;;
33268;SDS011;19640;50.944;5.260;2023-08-30T05:48:16;11.25;;;10.15;;
33268;SDS011;19640;50.944;5.260;2023-08-30T05:50:42;15.88;;;9.23;;
33268;SDS011;19640;50.944;5.260;2023-08-30T05:53:08;11.75;;;9.50;;
33268;SDS011;19640;50.944;5.260;2023-08-30T05:55:33;11.32;;;9.05;;
33268;SDS011;19640;50.944;5.260;2023-08-30T05:57:59;10.13;;;9.13;;
33268;SDS011;19640;50.944;5.260;2023-08-30T06:00:25;10.25;;;9.23;;
33268;SDS011;19640;50.944;5.260;2023-08-30T06:02:51;9.80;;;8.80;;
33268;SDS011;19640;50.944;5.260;2023-08-30T06:05:17;9.57;;;8.68;;
33268;SDS011;19640;50.944;5.260;2023-08-30T06:07:43;9.70;;;8.50;;
33268;SDS011;19640;50.944;5.260;2023-08-30T06:10:09;8.48;;;7.60;;
33268;SDS011;19640;50.944;5.260;2023-08-30T06:12:35;8.63;;;7.50;;
33268;SDS011;19640;50.944;5.260;2023-08-30T06:15:01;8.35;;;7.65;;
33268;SDS011;19640;50.944;5.260;2023-08-30T06:17:28;7.85;;;7.13;;
33268;SDS011;19640;50.944;5.260;2023-08-30T06:19:54;9.13;;;6.78;;
33268;SDS011;19640;50.944;5.260;2023-08-30T06:22:20;7.55;;;6.05;;
33268;SDS011;19640;50.944;5.260;2023-08-30T06:24:46;6.53;;;5.13;;
33268;SDS011;19640;50.944;5.260;2023-08-30T06:27:11;5.78;;;4.05;;
33268;SDS011;19640;50.944;5.260;2023-08-30T06:29:37;6.13;;;3.92;;
33268;SDS011;19640;50.944;5.260;2023-08-30T06:32:03;4.72;;;4.13;;
33268;SDS011;19640;50.944;5.260;2023-08-30T06:34:29;4.03;;;3.63;;
33268;SDS011;19640;50.944;5.260;2023-08-30T06:36:55;3.75;;;3.45;;
33268;SDS011;19640;50.944;5.260;2023-08-30T06:39:21;4.00;;;3.40;;
33268;SDS011;19640;50.944;5.260;2023-08-30T06:41:47;4.18;;;3.40;;
33268;SDS011;19640;50.944;5.260;2023-08-30T06:44:13;5.53;;;3.00;;
33268;SDS011;19640;50.944;5.260;2023-08-30T06:46:39;3.75;;;2.65;;
33268;SDS011;19640;50.944;5.260;2023-08-30T06:49:05;3.08;;;2.67;;
33268;SDS011;19640;50.944;5.260;2023-08-30T06:51:31;3.83;;;2.75;;
33268;SDS011;19640;50.944;5.260;2023-08-30T06:53:56;3.60;;;2.70;;
33268;SDS011;19640;50.944;5.260;2023-08-30T06:56:25;4.53;;;2.80;;
33268;SDS011;19640;50.944;5.260;2023-08-30T06:58:52;3.97;;;3.13;;
33268;SDS011;19640;50.944;5.260;2023-08-30T07:01:17;3.70;;;3.05;;
33268;SDS011;19640;50.944;5.260;2023-08-30T07:03:43;3.90;;;2.80;;
33268;SDS011;19640;50.944;5.260;2023-08-30T07:06:09;3.40;;;3.00;;
33268;SDS011;19640;50.944;5.260;2023-08-30T07:08:35;3.50;;;3.05;;
33268;SDS011;19640;50.944;5.260;2023-08-30T07:11:00;3.33;;;2.78;;
33268;SDS011;19640;50.944;5.260;2023-08-30T07:13:26;3.10;;;2.50;;
33268;SDS011;19640;50.944;5.260;2023-08-30T07:15:52;3.15;;;2.35;;
33268;SDS011;19640;50.944;5.260;2023-08-30T07:18:18;3.65;;;3.33;;
33268;SDS011;19640;50.944;5.260;2023-08-30T07:20:44;3.58;;;2.75;;
33268;SDS011;19640;50.944;5.260;2023-08-30T07:23:10;4.22;;;2.80;;
33268;SDS011;19640;50.944;5.260;2023-08-30T07:25:36;3.50;;;2.70;;
33268;SDS011;19640;50.944;5.260;2023-08-30T07:28:03;3.35;;;2.50;;
33268;SDS011;19640;50.944;5.260;2023-08-30T07:30:29;3.85;;;3.10;;
33268;SDS011;19640;50.944;5.260;2023-08-30T07:32:54;3.15;;;2.28;;
33268;SDS011;19640;50.944;5.260;2023-08-30T07:35:21;3.60;;;2.85;;
33268;SDS011;19640;50.944;5.260;2023-08-30T07:37:46;2.80;;;2.47;;
33268;SDS011;19640;50.944;5.260;2023-08-30T07:40:12;2.78;;;2.40;;
33268;SDS011;19640;50.944;5.260;2023-08-30T07:42:38;2.72;;;2.33;;
33268;SDS011;19640;50.944;5.260;2023-08-30T07:45:03;4.88;;;2.22;;
33268;SDS011;19640;50.944;5.260;2023-08-30T07:47:30;8.25;;;2.75;;
33268;SDS011;19640;50.944;5.260;2023-08-30T07:49:55;2.53;;;2.13;;
33268;SDS011;19640;50.944;5.260;2023-08-30T07:52:21;4.13;;;2.85;;
33268;SDS011;19640;50.944;5.260;2023-08-30T07:54:47;3.45;;;2.78;;
33268;SDS011;19640;50.944;5.260;2023-08-30T07:57:13;3.05;;;2.50;;
33268;SDS011;19640;50.944;5.260;2023-08-30T07:59:38;4.00;;;2.67;;
33268;SDS011;19640;50.944;5.260;2023-08-30T08:02:05;4.80;;;2.90;;
33268;SDS011;19640;50.944;5.260;2023-08-30T08:04:33;3.65;;;2.90;;
33268;SDS011;19640;50.944;5.260;2023-08-30T08:06:59;5.75;;;3.80;;
33268;SDS011;19640;50.944;5.260;2023-08-30T08:09:25;3.88;;;3.42;;
33268;SDS011;19640;50.944;5.260;2023-08-30T08:11:51;4.05;;;3.25;;
33268;SDS011;19640;50.944;5.260;2023-08-30T08:14:16;5.43;;;3.90;;
33268;SDS011;19640;50.944;5.260;2023-08-30T08:16:42;4.63;;;3.28;;
33268;SDS011;19640;50.944;5.260;2023-08-30T08:19:08;5.45;;;4.32;;
33268;SDS011;19640;50.944;5.260;2023-08-30T08:21:34;6.03;;;3.92;;
33268;SDS011;19640;50.944;5.260;2023-08-30T08:24:00;8.57;;;4.32;;
33268;SDS011;19640;50.944;5.260;2023-08-30T08:26:26;6.10;;;4.47;;
33268;SDS011;19640;50.944;5.260;2023-08-30T08:28:53;7.75;;;4.20;;
33268;SDS011;19640;50.944;5.260;2023-08-30T08:31:20;5.40;;;4.40;;
33268;SDS011;19640;50.944;5.260;2023-08-30T08:33:46;4.30;;;3.85;;
33268;SDS011;19640;50.944;5.260;2023-08-30T08:36:11;8.77;;;3.95;;
33268;SDS011;19640;50.944;5.260;2023-08-30T08:38:37;5.50;;;5.00;;
33268;SDS011;19640;50.944;5.260;2023-08-30T08:41:06;5.55;;;4.40;;
33268;SDS011;19640;50.944;5.260;2023-08-30T08:43:36;5.53;;;4.95;;
33268;SDS011;19640;50.944;5.260;2023-08-30T08:46:04;6.05;;;4.88;;
33268;SDS011;19640;50.944;5.260;2023-08-30T08:48:33;5.35;;;4.85;;
33268;SDS011;19640;50.944;5.260;2023-08-30T08:51:04;7.20;;;6.50;;
33268;SDS011;19640;50.944;5.260;2023-08-30T08:53:30;9.35;;;5.38;;
33268;SDS011;19640;50.944;5.260;2023-08-30T08:55:57;5.75;;;5.22;;
33268;SDS011;19640;50.944;5.260;2023-08-30T08:58:25;7.28;;;5.20;;
33268;SDS011;19640;50.944;5.260;2023-08-30T09:00:52;5.88;;;5.10;;
33268;SDS011;19640;50.944;5.260;2023-08-30T09:03:18;5.68;;;4.85;;
33268;SDS011;19640;50.944;5.260;2023-08-30T09:05:45;5.57;;;4.47;;
33268;SDS011;19640;50.944;5.260;2023-08-30T09:08:11;4.72;;;4.28;;
33268;SDS011;19640;50.944;5.260;2023-08-30T09:10:38;4.47;;;4.03;;
33268;SDS011;19640;50.944;5.260;2023-08-30T09:13:05;4.30;;;3.90;;
33268;SDS011;19640;50.944;5.260;2023-08-30T09:15:31;4.60;;;4.20;;
33268;SDS011;19640;50.944;5.260;2023-08-30T09:18:02;4.38;;;3.97;;
33268;SDS011;19640;50.944;5.260;2023-08-30T09:20:28;4.35;;;3.90;;
33268;SDS011;19640;50.944;5.260;2023-08-30T09:22:54;4.03;;;3.72;;
33268;SDS011;19640;50.944;5.260;2023-08-30T09:25:26;3.78;;;3.42;;
33268;SDS011;19640;50.944;5.260;2023-08-30T09:27:58;4.40;;;3.88;;
33268;SDS011;19640;50.944;5.260;2023-08-30T09:30:24;4.03;;;3.63;;
33268;SDS011;19640;50.944;5.260;2023-08-30T09:32:51;4.32;;;3.80;;
33268;SDS011;19640;50.944;5.260;2023-08-30T09:35:17;4.45;;;3.63;;
33268;SDS011;19640;50.944;5.260;2023-08-30T09:37:44;3.88;;;3.40;;
33268;SDS011;19640;50.944;5.260;2023-08-30T09:40:10;4.75;;;3.28;;
33268;SDS011;19640;50.944;5.260;2023-08-30T09:42:42;3.67;;;3.28;;
33268;SDS011;19640;50.944;5.260;2023-08-30T09:47:46;3.88;;;3.28;;
33268;SDS011;19640;50.944;5.260;2023-08-30T09:50:19;4.78;;;3.35;;
33268;SDS011;19640;50.944;5.260;2023-08-30T09:52:46;3.70;;;2.95;;
33268;SDS011;19640;50.944;5.260;2023-08-30T09:55:14;3.40;;;3.10;;
33268;SDS011;19640;50.944;5.260;2023-08-30T09:57:43;2.97;;;2.78;;
33268;SDS011;19640;50.944;5.260;2023-08-30T10:00:10;3.65;;;2.90;;
33268;SDS011;19640;50.944;5.260;2023-08-30T10:02:42;3.67;;;3.33;;
33268;SDS011;19640;50.944;5.260;2023-08-30T10:05:09;3.80;;;3.03;;
33268;SDS011;19640;50.944;5.260;2023-08-30T10:07:37;3.42;;;3.08;;
33268;SDS011;19640;50.944;5.260;2023-08-30T10:10:06;3.50;;;3.15;;
33268;SDS011;19640;50.944;5.260;2023-08-30T10:12:32;3.05;;;2.85;;
33268;SDS011;19640;50.944;5.260;2023-08-30T10:14:58;3.35;;;2.83;;
33268;SDS011;19640;50.944;5.260;2023-08-30T10:17:28;3.40;;;2.90;;
33268;SDS011;19640;50.944;5.260;2023-08-30T10:22:22;2.30;;;2.10;;
33268;SDS011;19640;50.944;5.260;2023-08-30T10:24:56;3.05;;;2.00;;
33268;SDS011;19640;50.944;5.260;2023-08-30T10:27:26;2.40;;;2.20;;
33268;SDS011;19640;50.944;5.260;2023-08-30T10:29:52;3.03;;;2.10;;
33268;SDS011;19640;50.944;5.260;2023-08-30T10:32:22;2.20;;;1.85;;
33268;SDS011;19640;50.944;5.260;2023-08-30T10:34:48;2.50;;;1.65;;
33268;SDS011;19640;50.944;5.260;2023-08-30T10:37:15;2.03;;;1.80;;
33268;SDS011;19640;50.944;5.260;2023-08-30T10:39:42;1.73;;;1.63;;
33268;SDS011;19640;50.944;5.260;2023-08-30T10:42:09;2.53;;;1.80;;
33268;SDS011;19640;50.944;5.260;2023-08-30T10:47:23;1.92;;;1.70;;
33268;SDS011;19640;50.944;5.260;2023-08-30T10:49:53;2.78;;;1.50;;
33268;SDS011;19640;50.944;5.260;2023-08-30T10:52:22;2.30;;;1.75;;
33268;SDS011;19640;50.944;5.260;2023-08-30T10:54:49;2.13;;;1.80;;
33268;SDS011;19640;50.944;5.260;2023-08-30T10:57:19;2.10;;;1.90;;
33268;SDS011;19640;50.944;5.260;2023-08-30T11:02:32;2.03;;;1.83;;
33268;SDS011;19640;50.944;5.260;2023-08-30T11:04:58;2.42;;;1.48;;
33268;SDS011;19640;50.944;5.260;2023-08-30T11:07:25;2.60;;;2.13;;
33268;SDS011;19640;50.944;5.260;2023-08-30T11:09:53;2.40;;;2.00;;
33268;SDS011;19640;50.944;5.260;2023-08-30T11:12:19;2.28;;;1.88;;
33268;SDS011;19640;50.944;5.260;2023-08-30T11:14:48;1.80;;;1.60;;
33268;SDS011;19640;50.944;5.260;2023-08-30T11:17:18;2.17;;;1.75;;
33268;SDS011;19640;50.944;5.260;2023-08-30T11:19:44;3.05;;;2.00;;
33268;SDS011;19640;50.944;5.260;2023-08-30T11:22:12;1.95;;;1.73;;
33268;SDS011;19640;50.944;5.260;2023-08-30T11:24:38;2.33;;;2.13;;
33268;SDS011;19640;50.944;5.260;2023-08-30T11:27:05;2.03;;;1.83;;
33268;SDS011;19640;50.944;5.260;2023-08-30T11:29:31;2.50;;;1.95;;
33268;SDS011;19640;50.944;5.260;2023-08-30T11:31:57;2.22;;;2.03;;
33268;SDS011;19640;50.944;5.260;2023-08-30T11:34:22;2.13;;;1.98;;
33268;SDS011;19640;50.944;5.260;2023-08-30T11:36:49;2.30;;;1.67;;
33268;SDS011;19640;50.944;5.260;2023-08-30T11:39:15;1.98;;;1.80;;
33268;SDS011;19640;50.944;5.260;2023-08-30T11:41:42;1.75;;;1.65;;
33268;SDS011;19640;50.944;5.260;2023-08-30T11:44:09;2.70;;;2.50;;
33268;SDS011;19640;50.944;5.260;2023-08-30T11:46:35;2.38;;;2.17;;
33268;SDS011;19640;50.944;5.260;2023-08-30T11:49:00;2.42;;;2.05;;
33268;SDS011;19640;50.944;5.260;2023-08-30T11:51:27;2.80;;;2.60;;
33268;SDS011;19640;50.944;5.260;2023-08-30T11:53:54;2.50;;;2.22;;
33268;SDS011;19640;50.944;5.260;2023-08-30T11:56:21;3.45;;;2.63;;
33268;SDS011;19640;50.944;5.260;2023-08-30T11:58:48;3.75;;;2.35;;
33268;SDS011;19640;50.944;5.260;2023-08-30T12:01:13;2.78;;;2.42;;
33268;SDS011;19640;50.944;5.260;2023-08-30T12:03:39;2.42;;;2.17;;
33268;SDS011;19640;50.944;5.260;2023-08-30T12:06:11;3.30;;;2.88;;
33268;SDS011;19640;50.944;5.260;2023-08-30T12:08:37;2.67;;;2.45;;
33268;SDS011;19640;50.944;5.260;2023-08-30T12:11:03;2.70;;;2.50;;
33268;SDS011;19640;50.944;5.260;2023-08-30T12:13:29;2.80;;;2.58;;
33268;SDS011;19640;50.944;5.260;2023-08-30T12:15:58;2.92;;;2.70;;
33268;SDS011;19640;50.944;5.260;2023-08-30T12:18:24;3.15;;;2.85;;
33268;SDS011;19640;50.944;5.260;2023-08-30T12:20:58;3.38;;;3.08;;
33268;SDS011;19640;50.944;5.260;2023-08-30T12:23:25;3.78;;;2.95;;
33268;SDS011;19640;50.944;5.260;2023-08-30T12:28:31;3.78;;;2.95;;
33268;SDS011;19640;50.944;5.260;2023-08-30T12:30:59;2.97;;;2.78;;
33268;SDS011;19640;50.944;5.260;2023-08-30T12:33:25;3.53;;;2.92;;
33268;SDS011;19640;50.944;5.260;2023-08-30T12:35:51;6.00;;;3.28;;
33268;SDS011;19640;50.944;5.260;2023-08-30T12:38:17;4.60;;;3.13;;
33268;SDS011;19640;50.944;5.260;2023-08-30T12:40:47;3.60;;;2.80;;
33268;SDS011;19640;50.944;5.260;2023-08-30T12:43:14;5.35;;;4.05;;
33268;SDS011;19640;50.944;5.260;2023-08-30T12:45:40;4.40;;;3.30;;
33268;SDS011;19640;50.944;5.260;2023-08-30T12:48:07;4.20;;;3.80;;
33268;SDS011;19640;50.944;5.260;2023-08-30T12:50:37;4.93;;;3.25;;
33268;SDS011;19640;50.944;5.260;2023-08-30T12:53:03;4.50;;;2.67;;
33268;SDS011;19640;50.944;5.260;2023-08-30T12:55:30;3.67;;;3.28;;
33268;SDS011;19640;50.944;5.260;2023-08-30T12:57:55;3.72;;;3.40;;
33268;SDS011;19640;50.944;5.260;2023-08-30T13:00:22;3.38;;;3.08;;
33268;SDS011;19640;50.944;5.260;2023-08-30T13:02:48;6.28;;;3.65;;
33268;SDS011;19640;50.944;5.260;2023-08-30T13:05:14;4.10;;;3.60;;
33268;SDS011;19640;50.944;5.260;2023-08-30T13:07:39;3.92;;;3.53;;
33268;SDS011;19640;50.944;5.260;2023-08-30T13:10:06;4.88;;;4.03;;
33268;SDS011;19640;50.944;5.260;2023-08-30T13:12:32;4.00;;;3.60;;
33268;SDS011;19640;50.944;5.260;2023-08-30T13:14:58;5.07;;;3.88;;
33268;SDS011;19640;50.944;5.260;2023-08-30T13:17:23;3.80;;;3.40;;
33268;SDS011;19640;50.944;5.260;2023-08-30T13:19:49;3.28;;;2.72;;
33268;SDS011;19640;50.944;5.260;2023-08-30T13:22:16;6.80;;;4.00;;
33268;SDS011;19640;50.944;5.260;2023-08-30T13:24:43;4.75;;;3.22;;
33268;SDS011;19640;50.944;5.260;2023-08-30T13:27:09;4.38;;;2.90;;
33268;SDS011;19640;50.944;5.260;2023-08-30T13:29:35;3.47;;;2.30;;
33268;SDS011;19640;50.944;5.260;2023-08-30T13:32:01;4.00;;;2.80;;
33268;SDS011;19640;50.944;5.260;2023-08-30T13:34:28;3.35;;;2.63;;
33268;SDS011;19640;50.944;5.260;2023-08-30T13:36:54;5.10;;;2.50;;
33268;SDS011;19640;50.944;5.260;2023-08-30T13:39:19;7.80;;;2.40;;
33268;SDS011;19640;50.944;5.260;2023-08-30T13:41:45;4.25;;;2.25;;
33268;SDS011;19640;50.944;5.260;2023-08-30T13:44:12;3.85;;;2.10;;
33268;SDS011;19640;50.944;5.260;2023-08-30T13:46:38;4.43;;;2.08;;
33268;SDS011;19640;50.944;5.260;2023-08-30T13:49:04;4.72;;;2.17;;
33268;SDS011;19640;50.944;5.260;2023-08-30T13:51:30;3.13;;;1.60;;
33268;SDS011;19640;50.944;5.260;2023-08-30T13:53:56;3.20;;;1.45;;
33268;SDS011;19640;50.944;5.260;2023-08-30T13:56:22;2.90;;;1.40;;
33268;SDS011;19640;50.944;5.260;2023-08-30T13:58:48;4.18;;;1.42;;
33268;SDS011;19640;50.944;5.260;2023-08-30T14:01:14;5.18;;;1.33;;
33268;SDS011;19640;50.944;5.260;2023-08-30T14:03:41;3.53;;;1.10;;
33268;SDS011;19640;50.944;5.260;2023-08-30T14:06:07;4.93;;;1.42;;
33268;SDS011;19640;50.944;5.260;2023-08-30T14:08:33;3.22;;;1.35;;
33268;SDS011;19640;50.944;5.260;2023-08-30T14:10:59;2.85;;;1.05;;
33268;SDS011;19640;50.944;5.260;2023-08-30T14:13:25;3.88;;;1.38;;
33268;SDS011;19640;50.944;5.260;2023-08-30T14:15:53;5.13;;;1.20;;
33268;SDS011;19640;50.944;5.260;2023-08-30T14:18:19;3.28;;;1.38;;
33268;SDS011;19640;50.944;5.260;2023-08-30T14:20:44;4.00;;;1.52;;
33268;SDS011;19640;50.944;5.260;2023-08-30T14:23:10;6.97;;;1.48;;
33268;SDS011;19640;50.944;5.260;2023-08-30T14:25:36;4.85;;;1.02;;
33268;SDS011;19640;50.944;5.260;2023-08-30T14:28:02;3.08;;;1.02;;
33268;SDS011;19640;50.944;5.260;2023-08-30T14:30:29;3.85;;;1.17;;
33268;SDS011;19640;50.944;5.260;2023-08-30T14:32:55;3.67;;;1.20;;
33268;SDS011;19640;50.944;5.260;2023-08-30T14:35:21;2.95;;;1.00;;
33268;SDS011;19640;50.944;5.260;2023-08-30T14:37:56;2.23;;;0.90;;
33268;SDS011;19640;50.944;5.260;2023-08-30T14:40:21;3.15;;;1.00;;
33268;SDS011;19640;50.944;5.260;2023-08-30T14:42:47;4.13;;;1.15;;
33268;SDS011;19640;50.944;5.260;2023-08-30T14:45:13;2.95;;;1.00;;
33268;SDS011;19640;50.944;5.260;2023-08-30T14:47:38;3.10;;;1.00;;
33268;SDS011;19640;50.944;5.260;2023-08-30T14:50:04;7.63;;;1.27;;
33268;SDS011;19640;50.944;5.260;2023-08-30T14:52:30;2.83;;;0.90;;
33268;SDS011;19640;50.944;5.260;2023-08-30T14:54:56;2.13;;;0.70;;
33268;SDS011;19640;50.944;5.260;2023-08-30T14:57:22;2.72;;;1.23;;
33268;SDS011;19640;50.944;5.260;2023-08-30T14:59:49;2.78;;;0.80;;
33268;SDS011;19640;50.944;5.260;2023-08-30T15:02:15;2.95;;;0.85;;
33268;SDS011;19640;50.944;5.260;2023-08-30T15:04:41;4.20;;;0.77;;
33268;SDS011;19640;50.944;5.260;2023-08-30T15:07:06;2.83;;;0.80;;